sensor_id;sensor_type;location;lat;lon;timestamp;temperature;humidity
48744;DHT22;34538;48.836;9.174;2023-08-24T00:01:21;19.40;99.90
48744;DHT22;34538;48.836;9.174;2023-08-24T00:03:48;19.40;99.90
48744;DHT22;34538;48.836;9.174;2023-08-24T00:06:15;19.40;99.90
48744;DHT22;34538;48.836;9.174;2023-08-24T00:08:42;19.40;99.90
48744;DHT22;34538;48.836;9.174;2023-08-24T00:11:09;19.30;99.90
48744;DHT22;34538;48.836;9.174;2023-08-24T00:13:40;19.40;99.90
48744;DHT22;34538;48.836;9.174;2023-08-24T00:16:13;19.30;99.90
48744;DHT22;34538;48.836;9.174;2023-08-24T00:18:41;19.30;99.90
48744;DHT22;34538;48.836;9.174;2023-08-24T00:21:08;19.30;99.90
48744;DHT22;34538;48.836;9.174;2023-08-24T00:23:35;19.20;99.90
48744;DHT22;34538;48.836;9.174;2023-08-24T00:26:02;19.20;99.90
48744;DHT22;34538;48.836;9.174;2023-08-24T00:28:29;19.10;99.90
48744;DHT22;34538;48.836;9.174;2023-08-24T00:30:56;19.10;99.90
48744;DHT22;34538;48.836;9.174;2023-08-24T00:33:24;19.00;99.90
48744;DHT22;34538;48.836;9.174;2023-08-24T00:35:53;19.00;99.90
48744;DHT22;34538;48.836;9.174;2023-08-24T00:38:26;19.00;99.90
48744;DHT22;34538;48.836;9.174;2023-08-24T00:40:53;19.00;99.90
48744;DHT22;34538;48.836;9.174;2023-08-24T00:43:20;19.00;99.90
48744;DHT22;34538;48.836;9.174;2023-08-24T00:45:50;18.90;99.90
48744;DHT22;34538;48.836;9.174;2023-08-24T00:48:17;18.90;99.90
48744;DHT22;34538;48.836;9.174;2023-08-24T00:50:46;18.90;99.90
48744;DHT22;34538;48.836;9.174;2023-08-24T00:53:13;18.80;99.90
48744;DHT22;34538;48.836;9.174;2023-08-24T00:55:40;18.90;99.90
48744;DHT22;34538;48.836;9.174;2023-08-24T00:58:09;18.80;99.90
48744;DHT22;34538;48.836;9.174;2023-08-24T01:00:37;18.90;99.90
48744;DHT22;34538;48.836;9.174;2023-08-24T01:03:04;18.90;99.90
48744;DHT22;34538;48.836;9.174;2023-08-24T01:05:31;18.90;99.90
48744;DHT22;34538;48.836;9.174;2023-08-24T01:08:00;18.90;99.90
48744;DHT22;34538;48.836;9.174;2023-08-24T01:10:33;18.90;99.90
48744;DHT22;34538;48.836;9.174;2023-08-24T01:13:07;18.90;99.90
48744;DHT22;34538;48.836;9.174;2023-08-24T01:15:38;18.90;99.90
48744;DHT22;34538;48.836;9.174;2023-08-24T01:18:11;18.90;99.90
48744;DHT22;34538;48.836;9.174;2023-08-24T01:20:40;18.90;99.90
48744;DHT22;34538;48.836;9.174;2023-08-24T01:23:27;18.80;99.90
48744;DHT22;34538;48.836;9.174;2023-08-24T01:26:12;18.90;99.90
48744;DHT22;34538;48.836;9.174;2023-08-24T01:28:42;18.80;99.90
48744;DHT22;34538;48.836;9.174;2023-08-24T01:31:10;18.80;99.90
48744;DHT22;34538;48.836;9.174;2023-08-24T01:33:37;18.80;99.90
48744;DHT22;34538;48.836;9.174;2023-08-24T01:36:06;18.80;99.90
48744;DHT22;34538;48.836;9.174;2023-08-24T01:38:34;18.80;99.90
48744;DHT22;34538;48.836;9.174;2023-08-24T01:41:11;18.80;99.90
48744;DHT22;34538;48.836;9.174;2023-08-24T01:43:40;18.80;99.90
48744;DHT22;34538;48.836;9.174;2023-08-24T01:46:08;18.70;99.90
48744;DHT22;34538;48.836;9.174;2023-08-24T01:48:35;18.70;99.90
48744;DHT22;34538;48.836;9.174;2023-08-24T01:51:03;18.60;99.90
48744;DHT22;34538;48.836;9.174;2023-08-24T01:53:31;18.50;99.90
48744;DHT22;34538;48.836;9.174;2023-08-24T01:55:59;18.50;99.90
48744;DHT22;34538;48.836;9.174;2023-08-24T01:58:27;18.50;99.90
48744;DHT22;34538;48.836;9.174;2023-08-24T02:00:54;18.60;99.90
48744;DHT22;34538;48.836;9.174;2023-08-24T02:03:21;18.60;99.90
48744;DHT22;34538;48.836;9.174;2023-08-24T02:05:47;18.60;99.90
48744;DHT22;34538;48.836;9.174;2023-08-24T02:08:14;18.60;99.90
48744;DHT22;34538;48.836;9.174;2023-08-24T02:10:41;18.60;99.90
48744;DHT22;34538;48.836;9.174;2023-08-24T02:13:08;18.50;99.90
48744;DHT22;34538;48.836;9.174;2023-08-24T02:15:37;18.40;99.90
48744;DHT22;34538;48.836;9.174;2023-08-24T02:18:05;18.40;99.90
48744;DHT22;34538;48.836;9.174;2023-08-24T02:20:35;18.40;99.90
48744;DHT22;34538;48.836;9.174;2023-08-24T02:23:03;18.30;99.90
48744;DHT22;34538;48.836;9.174;2023-08-24T02:25:30;18.30;99.90
48744;DHT22;34538;48.836;9.174;2023-08-24T02:27:57;18.30;99.90
48744;DHT22;34538;48.836;9.174;2023-08-24T02:30:23;18.30;99.90
48744;DHT22;34538;48.836;9.174;2023-08-24T02:32:52;18.30;99.90
48744;DHT22;34538;48.836;9.174;2023-08-24T02:35:19;18.20;99.90
48744;DHT22;34538;48.836;9.174;2023-08-24T02:37:46;18.20;99.90
48744;DHT22;34538;48.836;9.174;2023-08-24T02:40:13;18.20;99.90
48744;DHT22;34538;48.836;9.174;2023-08-24T02:42:40;18.20;99.90
48744;DHT22;34538;48.836;9.174;2023-08-24T02:45:08;18.20;99.90
48744;DHT22;34538;48.836;9.174;2023-08-24T02:47:37;18.20;99.90
48744;DHT22;34538;48.836;9.174;2023-08-24T02:50:07;18.20;99.90
48744;DHT22;34538;48.836;9.174;2023-08-24T02:52:35;18.20;99.90
48744;DHT22;34538;48.836;9.174;2023-08-24T02:55:01;18.20;99.90
48744;DHT22;34538;48.836;9.174;2023-08-24T02:57:29;18.20;99.90
48744;DHT22;34538;48.836;9.174;2023-08-24T02:59:56;18.20;99.90
48744;DHT22;34538;48.836;9.174;2023-08-24T03:02:23;18.20;99.90
48744;DHT22;34538;48.836;9.174;2023-08-24T03:04:50;18.20;99.90
48744;DHT22;34538;48.836;9.174;2023-08-24T03:07:18;18.20;99.90
48744;DHT22;34538;48.836;9.174;2023-08-24T03:09:45;18.20;99.90
48744;DHT22;34538;48.836;9.174;2023-08-24T03:12:12;18.20;99.90
48744;DHT22;34538;48.836;9.174;2023-08-24T03:14:39;18.10;99.90
48744;DHT22;34538;48.836;9.174;2023-08-24T03:17:07;18.20;99.90
48744;DHT22;34538;48.836;9.174;2023-08-24T03:19:35;18.20;99.90
48744;DHT22;34538;48.836;9.174;2023-08-24T03:22:01;18.20;99.90
48744;DHT22;34538;48.836;9.174;2023-08-24T03:24:30;18.20;99.90
48744;DHT22;34538;48.836;9.174;2023-08-24T03:26:57;18.20;99.90
48744;DHT22;34538;48.836;9.174;2023-08-24T03:29:25;18.10;99.90
48744;DHT22;34538;48.836;9.174;2023-08-24T03:31:52;18.20;99.90
48744;DHT22;34538;48.836;9.174;2023-08-24T03:34:20;18.20;99.90
48744;DHT22;34538;48.836;9.174;2023-08-24T03:36:47;18.20;99.90
48744;DHT22;34538;48.836;9.174;2023-08-24T03:39:14;18.20;99.90
48744;DHT22;34538;48.836;9.174;2023-08-24T03:41:44;18.20;99.90
48744;DHT22;34538;48.836;9.174;2023-08-24T03:44:11;18.20;99.90
48744;DHT22;34538;48.836;9.174;2023-08-24T03:46:38;18.20;99.90
48744;DHT22;34538;48.836;9.174;2023-08-24T03:49:05;18.10;99.90
48744;DHT22;34538;48.836;9.174;2023-08-24T03:51:32;18.10;99.90
48744;DHT22;34538;48.836;9.174;2023-08-24T03:53:59;18.20;99.90
48744;DHT22;34538;48.836;9.174;2023-08-24T03:56:26;18.20;99.90
48744;DHT22;34538;48.836;9.174;2023-08-24T03:58:54;18.20;99.90
48744;DHT22;34538;48.836;9.174;2023-08-24T04:01:22;18.20;99.90
48744;DHT22;34538;48.836;9.174;2023-08-24T04:03:49;18.20;99.90
48744;DHT22;34538;48.836;9.174;2023-08-24T04:06:18;18.30;99.90
48744;DHT22;34538;48.836;9.174;2023-08-24T04:08:45;18.30;99.90
48744;DHT22;34538;48.836;9.174;2023-08-24T04:11:12;18.40;99.90
48744;DHT22;34538;48.836;9.174;2023-08-24T04:13:39;18.40;99.90
48744;DHT22;34538;48.836;9.174;2023-08-24T04:16:07;18.40;99.90
48744;DHT22;34538;48.836;9.174;2023-08-24T04:18:34;18.40;99.90
48744;DHT22;34538;48.836;9.174;2023-08-24T04:21:01;18.50;99.90
48744;DHT22;34538;48.836;9.174;2023-08-24T04:23:28;18.50;99.90
48744;DHT22;34538;48.836;9.174;2023-08-24T04:25:55;18.60;99.90
48744;DHT22;34538;48.836;9.174;2023-08-24T04:28:22;18.50;99.90
48744;DHT22;34538;48.836;9.174;2023-08-24T04:30:50;18.60;99.90
48744;DHT22;34538;48.836;9.174;2023-08-24T04:33:19;18.70;99.90
48744;DHT22;34538;48.836;9.174;2023-08-24T04:35:47;18.70;99.90
48744;DHT22;34538;48.836;9.174;2023-08-24T04:38:14;18.70;99.90
48744;DHT22;34538;48.836;9.174;2023-08-24T04:40:49;18.70;99.90
48744;DHT22;34538;48.836;9.174;2023-08-24T04:43:16;18.70;99.90
48744;DHT22;34538;48.836;9.174;2023-08-24T04:45:45;18.70;99.90
48744;DHT22;34538;48.836;9.174;2023-08-24T04:48:12;18.70;99.90
48744;DHT22;34538;48.836;9.174;2023-08-24T04:50:43;18.70;99.90
48744;DHT22;34538;48.836;9.174;2023-08-24T04:53:10;18.70;99.90
48744;DHT22;34538;48.836;9.174;2023-08-24T04:55:37;18.70;99.90
48744;DHT22;34538;48.836;9.174;2023-08-24T04:58:04;18.70;99.90
48744;DHT22;34538;48.836;9.174;2023-08-24T05:00:31;18.70;99.90
48744;DHT22;34538;48.836;9.174;2023-08-24T05:02:59;18.70;99.90
48744;DHT22;34538;48.836;9.174;2023-08-24T05:05:26;18.70;99.90
48744;DHT22;34538;48.836;9.174;2023-08-24T05:07:54;18.70;99.90
48744;DHT22;34538;48.836;9.174;2023-08-24T05:10:22;18.80;99.90
48744;DHT22;34538;48.836;9.174;2023-08-24T05:12:48;18.70;99.90
48744;DHT22;34538;48.836;9.174;2023-08-24T05:15:16;18.80;99.90
48744;DHT22;34538;48.836;9.174;2023-08-24T05:17:43;18.90;99.90
48744;DHT22;34538;48.836;9.174;2023-08-24T05:20:10;18.90;99.90
48744;DHT22;34538;48.836;9.174;2023-08-24T05:22:37;18.90;99.90
48744;DHT22;34538;48.836;9.174;2023-08-24T05:25:06;18.90;99.90
48744;DHT22;34538;48.836;9.174;2023-08-24T05:27:34;19.00;99.90
48744;DHT22;34538;48.836;9.174;2023-08-24T05:30:00;19.10;99.90
48744;DHT22;34538;48.836;9.174;2023-08-24T05:32:28;19.10;99.90
48744;DHT22;34538;48.836;9.174;2023-08-24T05:34:55;19.20;99.90
48744;DHT22;34538;48.836;9.174;2023-08-24T05:37:22;19.30;99.90
48744;DHT22;34538;48.836;9.174;2023-08-24T05:39:49;19.40;99.90
48744;DHT22;34538;48.836;9.174;2023-08-24T05:42:17;19.40;99.90
48744;DHT22;34538;48.836;9.174;2023-08-24T05:44:44;19.50;99.90
48744;DHT22;34538;48.836;9.174;2023-08-24T05:47:11;19.60;99.90
48744;DHT22;34538;48.836;9.174;2023-08-24T05:49:38;19.70;99.90
48744;DHT22;34538;48.836;9.174;2023-08-24T05:52:05;19.80;99.90
48744;DHT22;34538;48.836;9.174;2023-08-24T05:54:32;19.80;99.90
48744;DHT22;34538;48.836;9.174;2023-08-24T05:56:59;19.90;99.90
48744;DHT22;34538;48.836;9.174;2023-08-24T05:59:28;20.00;99.90
48744;DHT22;34538;48.836;9.174;2023-08-24T06:01:55;20.10;99.90
48744;DHT22;34538;48.836;9.174;2023-08-24T06:04:22;20.10;99.90
48744;DHT22;34538;48.836;9.174;2023-08-24T06:06:49;20.20;99.90
48744;DHT22;34538;48.836;9.174;2023-08-24T06:09:16;20.30;99.90
48744;DHT22;34538;48.836;9.174;2023-08-24T06:11:43;20.40;99.90
48744;DHT22;34538;48.836;9.174;2023-08-24T06:14:10;20.50;99.90
48744;DHT22;34538;48.836;9.174;2023-08-24T06:16:39;20.50;99.90
48744;DHT22;34538;48.836;9.174;2023-08-24T06:19:06;20.60;99.90
48744;DHT22;34538;48.836;9.174;2023-08-24T06:21:33;20.70;99.90
48744;DHT22;34538;48.836;9.174;2023-08-24T06:24:00;20.80;99.90
48744;DHT22;34538;48.836;9.174;2023-08-24T06:26:27;20.90;99.90
48744;DHT22;34538;48.836;9.174;2023-08-24T06:28:54;21.00;99.90
48744;DHT22;34538;48.836;9.174;2023-08-24T06:31:21;21.00;99.90
48744;DHT22;34538;48.836;9.174;2023-08-24T06:33:50;21.10;99.90
48744;DHT22;34538;48.836;9.174;2023-08-24T06:36:18;21.20;99.90
48744;DHT22;34538;48.836;9.174;2023-08-24T06:38:45;21.30;99.90
48744;DHT22;34538;48.836;9.174;2023-08-24T06:41:12;21.30;99.90
48744;DHT22;34538;48.836;9.174;2023-08-24T06:43:39;21.40;99.90
48744;DHT22;34538;48.836;9.174;2023-08-24T06:46:06;21.40;99.90
48744;DHT22;34538;48.836;9.174;2023-08-24T06:48:33;21.50;99.90
48744;DHT22;34538;48.836;9.174;2023-08-24T06:51:02;21.50;99.90
48744;DHT22;34538;48.836;9.174;2023-08-24T06:53:29;21.50;99.90
48744;DHT22;34538;48.836;9.174;2023-08-24T06:55:56;21.60;99.90
48744;DHT22;34538;48.836;9.174;2023-08-24T06:58:24;21.60;99.90
48744;DHT22;34538;48.836;9.174;2023-08-24T07:00:50;21.60;99.90
48744;DHT22;34538;48.836;9.174;2023-08-24T07:03:17;21.60;99.90
48744;DHT22;34538;48.836;9.174;2023-08-24T07:05:45;21.70;99.90
48744;DHT22;34538;48.836;9.174;2023-08-24T07:08:13;21.70;99.90
48744;DHT22;34538;48.836;9.174;2023-08-24T07:10:42;21.80;99.90
48744;DHT22;34538;48.836;9.174;2023-08-24T07:13:09;21.80;99.90
48744;DHT22;34538;48.836;9.174;2023-08-24T07:15:36;21.90;99.90
48744;DHT22;34538;48.836;9.174;2023-08-24T07:18:03;22.00;99.90
48744;DHT22;34538;48.836;9.174;2023-08-24T07:20:32;22.10;99.90
48744;DHT22;34538;48.836;9.174;2023-08-24T07:22:58;22.20;99.90
48744;DHT22;34538;48.836;9.174;2023-08-24T07:25:27;22.30;99.90
48744;DHT22;34538;48.836;9.174;2023-08-24T07:27:54;22.30;99.90
48744;DHT22;34538;48.836;9.174;2023-08-24T07:30:24;22.40;99.90
48744;DHT22;34538;48.836;9.174;2023-08-24T07:32:50;22.50;99.90
48744;DHT22;34538;48.836;9.174;2023-08-24T07:35:17;22.50;99.90
48744;DHT22;34538;48.836;9.174;2023-08-24T07:37:46;22.60;99.90
48744;DHT22;34538;48.836;9.174;2023-08-24T07:40:14;22.60;99.90
48744;DHT22;34538;48.836;9.174;2023-08-24T07:42:46;22.60;99.90
48744;DHT22;34538;48.836;9.174;2023-08-24T07:45:14;22.50;99.90
48744;DHT22;34538;48.836;9.174;2023-08-24T07:47:41;22.60;99.90
48744;DHT22;34538;48.836;9.174;2023-08-24T07:50:08;22.50;99.90
48744;DHT22;34538;48.836;9.174;2023-08-24T07:52:36;22.60;99.90
48744;DHT22;34538;48.836;9.174;2023-08-24T07:55:03;22.70;99.90
48744;DHT22;34538;48.836;9.174;2023-08-24T07:57:32;22.80;99.90
48744;DHT22;34538;48.836;9.174;2023-08-24T08:00:01;22.80;99.90
48744;DHT22;34538;48.836;9.174;2023-08-24T08:02:38;23.00;99.90
48744;DHT22;34538;48.836;9.174;2023-08-24T08:05:06;23.10;99.90
48744;DHT22;34538;48.836;9.174;2023-08-24T08:07:33;23.10;99.90
48744;DHT22;34538;48.836;9.174;2023-08-24T08:10:00;23.30;99.90
48744;DHT22;34538;48.836;9.174;2023-08-24T08:12:27;23.40;99.90
48744;DHT22;34538;48.836;9.174;2023-08-24T08:14:55;23.50;99.90
48744;DHT22;34538;48.836;9.174;2023-08-24T08:17:23;23.60;99.90
48744;DHT22;34538;48.836;9.174;2023-08-24T08:19:54;23.60;99.90
48744;DHT22;34538;48.836;9.174;2023-08-24T08:22:21;23.70;99.90
48744;DHT22;34538;48.836;9.174;2023-08-24T08:24:47;23.80;99.90
48744;DHT22;34538;48.836;9.174;2023-08-24T08:27:15;23.90;99.90
48744;DHT22;34538;48.836;9.174;2023-08-24T08:29:42;24.00;99.90
48744;DHT22;34538;48.836;9.174;2023-08-24T08:32:09;24.00;99.90
48744;DHT22;34538;48.836;9.174;2023-08-24T08:34:39;24.10;99.90
48744;DHT22;34538;48.836;9.174;2023-08-24T08:37:05;24.10;99.90
48744;DHT22;34538;48.836;9.174;2023-08-24T08:39:32;24.20;99.90
48744;DHT22;34538;48.836;9.174;2023-08-24T08:41:59;24.30;99.90
48744;DHT22;34538;48.836;9.174;2023-08-24T08:44:30;24.30;99.90
48744;DHT22;34538;48.836;9.174;2023-08-24T08:46:57;24.40;99.90
48744;DHT22;34538;48.836;9.174;2023-08-24T08:49:24;24.50;99.90
48744;DHT22;34538;48.836;9.174;2023-08-24T08:51:53;24.60;99.90
48744;DHT22;34538;48.836;9.174;2023-08-24T08:54:20;24.70;99.90
48744;DHT22;34538;48.836;9.174;2023-08-24T08:56:47;24.80;99.90
48744;DHT22;34538;48.836;9.174;2023-08-24T08:59:14;24.90;99.90
48744;DHT22;34538;48.836;9.174;2023-08-24T09:01:43;24.90;99.90
48744;DHT22;34538;48.836;9.174;2023-08-24T09:04:11;24.90;99.90
48744;DHT22;34538;48.836;9.174;2023-08-24T09:06:39;25.10;99.90
48744;DHT22;34538;48.836;9.174;2023-08-24T09:09:08;25.20;99.90
48744;DHT22;34538;48.836;9.174;2023-08-24T09:11:35;25.30;99.90
48744;DHT22;34538;48.836;9.174;2023-08-24T09:14:02;25.40;99.90
48744;DHT22;34538;48.836;9.174;2023-08-24T09:16:29;25.50;99.90
48744;DHT22;34538;48.836;9.174;2023-08-24T09:18:57;25.60;99.90
48744;DHT22;34538;48.836;9.174;2023-08-24T09:21:24;25.70;99.90
48744;DHT22;34538;48.836;9.174;2023-08-24T09:23:53;25.80;99.90
48744;DHT22;34538;48.836;9.174;2023-08-24T09:26:28;25.90;99.90
48744;DHT22;34538;48.836;9.174;2023-08-24T09:28:56;26.00;99.90
48744;DHT22;34538;48.836;9.174;2023-08-24T09:31:23;26.10;99.90
48744;DHT22;34538;48.836;9.174;2023-08-24T09:34:00;26.10;99.90
48744;DHT22;34538;48.836;9.174;2023-08-24T09:36:27;26.20;99.90
48744;DHT22;34538;48.836;9.174;2023-08-24T09:38:58;26.20;99.90
48744;DHT22;34538;48.836;9.174;2023-08-24T09:41:38;26.30;99.90
48744;DHT22;34538;48.836;9.174;2023-08-24T09:44:05;26.40;99.90
48744;DHT22;34538;48.836;9.174;2023-08-24T09:46:32;26.50;99.90
48744;DHT22;34538;48.836;9.174;2023-08-24T09:48:59;26.60;99.90
48744;DHT22;34538;48.836;9.174;2023-08-24T09:51:27;26.70;99.90
48744;DHT22;34538;48.836;9.174;2023-08-24T09:53:57;26.70;99.90
48744;DHT22;34538;48.836;9.174;2023-08-24T09:56:25;26.90;99.90
48744;DHT22;34538;48.836;9.174;2023-08-24T09:58:58;27.00;99.90
48744;DHT22;34538;48.836;9.174;2023-08-24T10:01:27;27.10;99.90
48744;DHT22;34538;48.836;9.174;2023-08-24T10:03:57;27.10;99.90
48744;DHT22;34538;48.836;9.174;2023-08-24T10:06:27;27.20;99.90
48744;DHT22;34538;48.836;9.174;2023-08-24T10:08:57;27.20;99.90
48744;DHT22;34538;48.836;9.174;2023-08-24T10:11:28;27.30;99.90
48744;DHT22;34538;48.836;9.174;2023-08-24T10:14:00;27.30;99.90
48744;DHT22;34538;48.836;9.174;2023-08-24T10:16:33;27.40;99.90
48744;DHT22;34538;48.836;9.174;2023-08-24T10:19:02;27.50;99.90
48744;DHT22;34538;48.836;9.174;2023-08-24T10:21:30;27.60;99.90
48744;DHT22;34538;48.836;9.174;2023-08-24T10:23:57;27.70;99.90
48744;DHT22;34538;48.836;9.174;2023-08-24T10:26:25;27.80;99.90
48744;DHT22;34538;48.836;9.174;2023-08-24T10:28:53;28.00;99.90
48744;DHT22;34538;48.836;9.174;2023-08-24T10:31:22;28.10;99.90
48744;DHT22;34538;48.836;9.174;2023-08-24T10:33:49;28.20;99.90
48744;DHT22;34538;48.836;9.174;2023-08-24T10:36:17;28.30;99.90
48744;DHT22;34538;48.836;9.174;2023-08-24T10:38:44;28.40;99.90
48744;DHT22;34538;48.836;9.174;2023-08-24T10:41:11;28.40;99.90
48744;DHT22;34538;48.836;9.174;2023-08-24T10:43:40;28.50;99.90
48744;DHT22;34538;48.836;9.174;2023-08-24T10:46:12;28.50;99.90
48744;DHT22;34538;48.836;9.174;2023-08-24T10:48:59;28.70;99.90
48744;DHT22;34538;48.836;9.174;2023-08-24T10:51:26;28.90;99.90
48744;DHT22;34538;48.836;9.174;2023-08-24T10:53:56;29.00;99.90
48744;DHT22;34538;48.836;9.174;2023-08-24T10:56:34;29.10;99.90
48744;DHT22;34538;48.836;9.174;2023-08-24T10:59:13;29.30;99.90
48744;DHT22;34538;48.836;9.174;2023-08-24T11:01:40;29.40;99.90
48744;DHT22;34538;48.836;9.174;2023-08-24T11:04:11;29.50;99.90
48744;DHT22;34538;48.836;9.174;2023-08-24T11:06:51;29.50;99.90
48744;DHT22;34538;48.836;9.174;2023-08-24T11:09:19;29.50;99.90
48744;DHT22;34538;48.836;9.174;2023-08-24T11:11:56;29.50;99.90
48744;DHT22;34538;48.836;9.174;2023-08-24T11:14:23;29.60;99.90
48744;DHT22;34538;48.836;9.174;2023-08-24T11:16:52;29.60;99.90
48744;DHT22;34538;48.836;9.174;2023-08-24T11:19:21;29.70;99.90
48744;DHT22;34538;48.836;9.174;2023-08-24T11:21:48;29.70;99.90
48744;DHT22;34538;48.836;9.174;2023-08-24T11:24:16;29.80;99.90
48744;DHT22;34538;48.836;9.174;2023-08-24T11:26:44;29.80;99.90
48744;DHT22;34538;48.836;9.174;2023-08-24T11:29:11;29.80;99.90
48744;DHT22;34538;48.836;9.174;2023-08-24T11:31:39;29.90;99.90
48744;DHT22;34538;48.836;9.174;2023-08-24T11:34:06;29.90;99.90
48744;DHT22;34538;48.836;9.174;2023-08-24T11:36:43;30.10;99.90
48744;DHT22;34538;48.836;9.174;2023-08-24T11:39:16;30.20;99.90
48744;DHT22;34538;48.836;9.174;2023-08-24T11:41:45;30.30;99.90
48744;DHT22;34538;48.836;9.174;2023-08-24T11:44:22;30.30;99.90
48744;DHT22;34538;48.836;9.174;2023-08-24T11:46:49;30.30;99.90
48744;DHT22;34538;48.836;9.174;2023-08-24T11:49:16;30.40;99.90
48744;DHT22;34538;48.836;9.174;2023-08-24T11:51:44;30.50;99.90
48744;DHT22;34538;48.836;9.174;2023-08-24T11:54:11;30.50;99.90
48744;DHT22;34538;48.836;9.174;2023-08-24T11:56:41;30.50;99.90
48744;DHT22;34538;48.836;9.174;2023-08-24T11:59:11;30.60;99.90
48744;DHT22;34538;48.836;9.174;2023-08-24T12:01:38;30.60;99.90
48744;DHT22;34538;48.836;9.174;2023-08-24T12:04:06;30.60;99.90
48744;DHT22;34538;48.836;9.174;2023-08-24T12:06:33;30.70;99.90
48744;DHT22;34538;48.836;9.174;2023-08-24T12:09:04;30.80;99.90
48744;DHT22;34538;48.836;9.174;2023-08-24T12:11:35;30.90;99.90
48744;DHT22;34538;48.836;9.174;2023-08-24T12:14:02;31.10;99.90
48744;DHT22;34538;48.836;9.174;2023-08-24T12:16:32;31.20;99.90
48744;DHT22;34538;48.836;9.174;2023-08-24T12:19:00;31.30;99.90
48744;DHT22;34538;48.836;9.174;2023-08-24T12:21:29;31.30;99.90
48744;DHT22;34538;48.836;9.174;2023-08-24T12:23:57;31.40;99.90
48744;DHT22;34538;48.836;9.174;2023-08-24T12:26:25;31.40;99.90
48744;DHT22;34538;48.836;9.174;2023-08-24T12:28:53;31.50;99.90
48744;DHT22;34538;48.836;9.174;2023-08-24T12:31:20;31.60;99.90
48744;DHT22;34538;48.836;9.174;2023-08-24T12:33:59;31.60;99.90
48744;DHT22;34538;48.836;9.174;2023-08-24T12:36:26;31.70;99.90
48744;DHT22;34538;48.836;9.174;2023-08-24T12:38:53;31.80;99.90
48744;DHT22;34538;48.836;9.174;2023-08-24T12:41:21;31.80;99.90
48744;DHT22;34538;48.836;9.174;2023-08-24T12:43:50;31.90;99.90
48744;DHT22;34538;48.836;9.174;2023-08-24T12:46:17;32.00;99.90
48744;DHT22;34538;48.836;9.174;2023-08-24T12:48:44;32.10;99.90
48744;DHT22;34538;48.836;9.174;2023-08-24T12:51:11;32.10;99.90
48744;DHT22;34538;48.836;9.174;2023-08-24T12:53:38;32.30;99.90
48744;DHT22;34538;48.836;9.174;2023-08-24T12:56:05;32.30;99.90
48744;DHT22;34538;48.836;9.174;2023-08-24T12:58:32;32.40;99.90
48744;DHT22;34538;48.836;9.174;2023-08-24T13:01:00;32.60;99.90
48744;DHT22;34538;48.836;9.174;2023-08-24T13:03:28;32.70;99.90
48744;DHT22;34538;48.836;9.174;2023-08-24T13:05:55;32.90;99.90
48744;DHT22;34538;48.836;9.174;2023-08-24T13:08:22;33.00;99.90
48744;DHT22;34538;48.836;9.174;2023-08-24T13:10:49;33.00;99.90
48744;DHT22;34538;48.836;9.174;2023-08-24T13:13:17;33.10;99.90
48744;DHT22;34538;48.836;9.174;2023-08-24T13:15:49;33.20;99.90
48744;DHT22;34538;48.836;9.174;2023-08-24T13:18:17;33.20;99.90
48744;DHT22;34538;48.836;9.174;2023-08-24T13:20:44;33.30;99.90
48744;DHT22;34538;48.836;9.174;2023-08-24T13:23:11;33.40;99.90
48744;DHT22;34538;48.836;9.174;2023-08-24T13:25:38;33.40;99.90
48744;DHT22;34538;48.836;9.174;2023-08-24T13:28:06;33.50;99.90
48744;DHT22;34538;48.836;9.174;2023-08-24T13:30:33;33.50;99.70
48744;DHT22;34538;48.836;9.174;2023-08-24T13:33:00;33.50;99.90
48744;DHT22;34538;48.836;9.174;2023-08-24T13:35:28;33.50;99.90
48744;DHT22;34538;48.836;9.174;2023-08-24T13:37:55;33.50;99.70
48744;DHT22;34538;48.836;9.174;2023-08-24T13:40:22;33.40;99.80
48744;DHT22;34538;48.836;9.174;2023-08-24T13:42:48;33.50;99.60
48744;DHT22;34538;48.836;9.174;2023-08-24T13:45:16;33.50;99.70
48744;DHT22;34538;48.836;9.174;2023-08-24T13:47:43;33.50;99.40
48744;DHT22;34538;48.836;9.174;2023-08-24T13:50:10;33.50;99.20
48744;DHT22;34538;48.836;9.174;2023-08-24T13:52:38;33.50;99.30
48744;DHT22;34538;48.836;9.174;2023-08-24T13:55:06;33.50;99.60
48744;DHT22;34538;48.836;9.174;2023-08-24T13:57:33;33.50;98.60
48744;DHT22;34538;48.836;9.174;2023-08-24T14:00:00;33.50;98.50
48744;DHT22;34538;48.836;9.174;2023-08-24T14:02:38;33.50;99.10
48744;DHT22;34538;48.836;9.174;2023-08-24T14:05:06;33.60;98.90
48744;DHT22;34538;48.836;9.174;2023-08-24T14:07:34;33.60;98.70
48744;DHT22;34538;48.836;9.174;2023-08-24T14:10:04;33.70;99.00
48744;DHT22;34538;48.836;9.174;2023-08-24T14:12:32;33.80;98.20
48744;DHT22;34538;48.836;9.174;2023-08-24T14:14:59;33.80;97.60
48744;DHT22;34538;48.836;9.174;2023-08-24T14:17:26;33.80;97.90
48744;DHT22;34538;48.836;9.174;2023-08-24T14:19:53;33.80;97.40
48744;DHT22;34538;48.836;9.174;2023-08-24T14:22:20;33.70;98.00
48744;DHT22;34538;48.836;9.174;2023-08-24T14:24:47;33.70;98.10
48744;DHT22;34538;48.836;9.174;2023-08-24T14:27:15;33.60;97.90
48744;DHT22;34538;48.836;9.174;2023-08-24T14:29:42;33.60;98.20
48744;DHT22;34538;48.836;9.174;2023-08-24T14:32:08;33.50;97.80
48744;DHT22;34538;48.836;9.174;2023-08-24T14:34:35;33.50;97.60
48744;DHT22;34538;48.836;9.174;2023-08-24T14:37:02;33.40;97.60
48744;DHT22;34538;48.836;9.174;2023-08-24T14:39:29;33.30;97.60
48744;DHT22;34538;48.836;9.174;2023-08-24T14:41:56;33.20;97.80
48744;DHT22;34538;48.836;9.174;2023-08-24T14:44:24;33.20;97.70
48744;DHT22;34538;48.836;9.174;2023-08-24T14:46:51;33.10;97.90
48744;DHT22;34538;48.836;9.174;2023-08-24T14:49:18;33.00;98.00
48744;DHT22;34538;48.836;9.174;2023-08-24T14:51:45;33.00;98.00
48744;DHT22;34538;48.836;9.174;2023-08-24T14:54:12;32.90;98.10
48744;DHT22;34538;48.836;9.174;2023-08-24T14:56:40;32.80;98.40
48744;DHT22;34538;48.836;9.174;2023-08-24T14:59:07;32.70;97.80
48744;DHT22;34538;48.836;9.174;2023-08-24T15:01:35;32.40;99.90
48744;DHT22;34538;48.836;9.174;2023-08-24T15:04:02;31.70;99.90
48744;DHT22;34538;48.836;9.174;2023-08-24T15:06:29;30.00;99.90
48744;DHT22;34538;48.836;9.174;2023-08-24T15:08:56;28.30;99.90
48744;DHT22;34538;48.836;9.174;2023-08-24T15:11:23;26.80;99.90
48744;DHT22;34538;48.836;9.174;2023-08-24T15:13:50;25.70;99.90
48744;DHT22;34538;48.836;9.174;2023-08-24T15:16:17;25.00;99.90
48744;DHT22;34538;48.836;9.174;2023-08-24T15:18:45;24.50;99.90
48744;DHT22;34538;48.836;9.174;2023-08-24T15:21:12;24.30;99.90
48744;DHT22;34538;48.836;9.174;2023-08-24T15:23:40;24.10;99.90
48744;DHT22;34538;48.836;9.174;2023-08-24T15:26:07;24.00;99.90
48744;DHT22;34538;48.836;9.174;2023-08-24T15:28:36;23.90;99.90
48744;DHT22;34538;48.836;9.174;2023-08-24T15:31:03;23.80;99.90
48744;DHT22;34538;48.836;9.174;2023-08-24T15:33:30;23.60;99.90
48744;DHT22;34538;48.836;9.174;2023-08-24T15:35:58;23.50;99.90